»·PEaware :: AAL208 KSEA-KPHX

AAL208 :: KSEA-KPHX

FLIGHT INFORMATION

Flight Status: Arrived
Operator:
American Airlines
More flights by this operator :: More flights under this callsign
Pilot: Justin S. (10202)
Aircraft: AIRBUS A320
(A320)
More flights by this aircraft type
Origin: KSEA Seattle-Tacoma Intl
United States
Destination: KPHX Phoenix Sky Harbor Intl
United States
More flights between these airports :: More routes between these airports
Route: +BERYL CORKR TENTS BRUSR1
File this flight plan on PilotEdge
Remarks:
Altitude:
(Current/Filed)
35,000ft
Speed:
(Current/Filed)
451kts
Departed: 02-Jan-18 10:29 AM
Arrived: 02-Jan-18 12:48 PM
Distance/Time
Traveled:
962nm/2:19
Distance/Time
To Go:
Arrived

Flight Plot

Page will automatically refresh every two minutes.

Flight plan parsing failed; only flown route is shown


Map Options




Map Legend


Flown Route
Filed Route
Departure Airport
Arrival Airport
Navaid (VOR, NDB)
Fix

Horizontal Profiles

Position Reports

Time Latitude Longitude Heading Altitude Ground
Speed
02-Jan-18 10:14 47.446603 -122.303386 226 447ft 0kts
02-Jan-18 10:15 47.446603 -122.303386 226 447ft 0kts
02-Jan-18 10:16 47.446603 -122.303386 226 447ft 0kts
02-Jan-18 10:17 47.446603 -122.303386 226 447ft 0kts
02-Jan-18 10:18 47.446603 -122.303386 226 447ft 0kts
02-Jan-18 10:19 47.446603 -122.303386 226 447ft 0kts
02-Jan-18 10:20 47.446603 -122.303386 226 447ft 0kts
02-Jan-18 10:21 47.446603 -122.303386 226 447ft 0kts
02-Jan-18 10:22 47.446603 -122.303386 226 447ft 0kts
02-Jan-18 10:23 47.446882 -122.302740 262 447ft 2kts
02-Jan-18 10:24 47.446802 -122.302321 304 447ft 0kts
02-Jan-18 10:25 47.446802 -122.302321 304 447ft 0kts
02-Jan-18 10:26 47.446802 -122.302322 304 447ft 0kts
02-Jan-18 10:27 47.446803 -122.302323 304 447ft 0kts
02-Jan-18 10:28 47.447253 -122.303263 306 447ft 4kts
02-Jan-18 10:29 47.447896 -122.304563 301 447ft 1kts
02-Jan-18 10:30 47.446192 -122.306321 180 447ft 18kts
02-Jan-18 10:31 47.440227 -122.306378 180 447ft 24kts
02-Jan-18 10:32 47.434834 -122.305605 180 447ft 8kts
02-Jan-18 10:33 47.431591 -122.305346 184 447ft 10kts
02-Jan-18 10:34 47.433167 -122.308065 0 447ft 27kts
02-Jan-18 10:35 47.467888 -122.307757 0 1772ft 147kts
02-Jan-18 10:36 47.515243 -122.309067 1 3182ft 197kts
02-Jan-18 10:37 47.579973 -122.308935 11 4830ft 261kts
02-Jan-18 10:38 47.611790 -122.221044 91 7509ft 271kts
02-Jan-18 10:39 47.615206 -122.105725 88 10142ft 288kts
02-Jan-18 10:40 47.615158 -121.976285 107 11377ft 343kts
02-Jan-18 10:41 47.540178 -121.897652 180 13090ft 358kts
02-Jan-18 10:42 47.439054 -121.904599 183 15169ft 368kts
02-Jan-18 10:43 47.335198 -121.909385 183 17072ft 379kts
02-Jan-18 10:44 47.228161 -121.914767 183 18791ft 390kts
02-Jan-18 10:45 47.118168 -121.920302 184 20337ft 402kts
02-Jan-18 10:46 47.004953 -121.925934 184 21763ft 413kts
02-Jan-18 10:47 46.888294 -121.931769 185 23071ft 424kts
02-Jan-18 10:48 46.769155 -121.937693 185 24286ft 433kts
02-Jan-18 10:49 46.647666 -121.943660 185 25441ft 441kts
02-Jan-18 10:50 46.523540 -121.943751 177 26531ft 452kts
02-Jan-18 10:51 46.403524 -121.892714 138 27456ft 478kts
02-Jan-18 10:52 46.304129 -121.764058 147 28389ft 481kts
02-Jan-18 10:53 46.197704 -121.645167 143 29476ft 483kts
02-Jan-18 10:54 46.092329 -121.525954 145 30566ft 481kts
02-Jan-18 10:55 45.986925 -121.406591 145 31584ft 480kts
02-Jan-18 10:56 45.881730 -121.288966 145 32549ft 479kts
02-Jan-18 10:57 45.776164 -121.171183 146 33397ft 479kts
02-Jan-18 10:58 45.673545 -121.049038 140 34159ft 483kts
02-Jan-18 10:59 45.575811 -120.917461 140 34794ft 485kts
02-Jan-18 11:00 45.493142 -120.808063 140 35258ft 486kts
02-Jan-18 11:01 45.377625 -120.655425 140 35757ft 487kts
02-Jan-18 11:02 45.278232 -120.524889 140 35740ft 487kts
02-Jan-18 11:03 45.194882 -120.416008 140 35725ft 487kts
02-Jan-18 11:04 45.095297 -120.286244 140 35734ft 487kts
02-Jan-18 11:05 44.995095 -120.156658 140 35716ft 487kts
02-Jan-18 11:06 44.895108 -120.027871 140 35701ft 487kts
02-Jan-18 11:07 44.795182 -119.899413 140 35658ft 486kts
02-Jan-18 11:08 44.694614 -119.771179 141 35570ft 488kts
02-Jan-18 11:09 44.583079 -119.669547 161 35604ft 476kts
02-Jan-18 11:10 44.461011 -119.595424 160 35618ft 478kts
02-Jan-18 11:11 44.339733 -119.519609 161 35597ft 477kts
02-Jan-18 11:12 44.218538 -119.444564 160 35590ft 476kts
02-Jan-18 11:13 44.097112 -119.369861 161 35570ft 476kts
02-Jan-18 11:14 43.976095 -119.295549 160 35505ft 477kts
02-Jan-18 11:15 43.854911 -119.221828 161 35571ft 475kts
02-Jan-18 11:16 43.733531 -119.147825 161 35584ft 476kts
02-Jan-18 11:17 43.612190 -119.074566 161 35583ft 476kts
02-Jan-18 11:18 43.490408 -119.001243 161 35594ft 477kts
02-Jan-18 11:19 43.381210 -118.896689 140 35563ft 487kts
02-Jan-18 11:20 43.276417 -118.778549 145 35571ft 486kts
02-Jan-18 11:21 43.171594 -118.661633 144 35597ft 487kts
02-Jan-18 11:22 43.065941 -118.544853 144 35594ft 487kts
02-Jan-18 11:23 42.960600 -118.428318 144 35592ft 488kts
02-Jan-18 11:24 42.855020 -118.312841 144 35590ft 487kts
02-Jan-18 11:25 42.749393 -118.197264 144 35588ft 485kts
02-Jan-18 11:26 42.644081 -118.082838 144 35540ft 485kts
02-Jan-18 11:27 42.538440 -117.968378 144 35511ft 485kts
02-Jan-18 11:28 42.432678 -117.854211 144 35508ft 488kts
02-Jan-18 11:29 42.326356 -117.740114 144 35585ft 489kts
02-Jan-18 11:30 42.219706 -117.626044 144 35586ft 487kts
02-Jan-18 11:31 42.113521 -117.513157 144 35554ft 486kts
02-Jan-18 11:32 42.006925 -117.400082 145 35496ft 487kts
02-Jan-18 11:33 41.900662 -117.287857 141 35678ft 476kts
02-Jan-18 11:34 41.799178 -117.181486 142 35990ft 472kts
02-Jan-18 11:35 41.692253 -117.069537 142 35597ft 499kts
02-Jan-18 11:36 41.581463 -116.954374 142 35541ft 507kts
02-Jan-18 11:37 41.470249 -116.838873 142 35464ft 508kts
02-Jan-18 11:38 41.358330 -116.723829 142 35529ft 506kts
02-Jan-18 11:39 41.248158 -116.610481 142 35527ft 492kts
02-Jan-18 11:40 41.139200 -116.499061 142 35511ft 494kts
02-Jan-18 11:41 41.030722 -116.388643 143 35528ft 492kts
02-Jan-18 11:42 40.922191 -116.278790 143 35542ft 492kts
02-Jan-18 11:43 40.813321 -116.168667 143 35557ft 492kts
02-Jan-18 11:44 40.704534 -116.059363 143 35566ft 492kts
02-Jan-18 11:45 40.595237 -115.949944 143 35554ft 493kts
02-Jan-18 11:46 40.483897 -115.838935 143 35533ft 511kts
02-Jan-18 11:47 40.370461 -115.726148 143 35525ft 515kts
02-Jan-18 11:48 40.258358 -115.615232 143 35496ft 494kts
02-Jan-18 11:49 40.149062 -115.507792 143 35459ft 492kts
02-Jan-18 11:50 40.038889 -115.399615 143 35456ft 500kts
02-Jan-18 11:51 39.926613 -115.290189 143 35526ft 504kts
02-Jan-18 11:52 39.814203 -115.180803 143 35566ft 504kts
02-Jan-18 11:53 39.701945 -115.072004 143 35556ft 500kts
02-Jan-18 11:54 39.590542 -114.964608 143 35474ft 499kts
02-Jan-18 11:55 39.478262 -114.856815 143 35495ft 510kts
02-Jan-18 11:56 39.362404 -114.745888 143 35521ft 520kts
02-Jan-18 11:57 39.246131 -114.635278 143 35527ft 520kts
02-Jan-18 11:58 39.130861 -114.525839 144 35516ft 505kts
02-Jan-18 11:59 39.017251 -114.418553 144 35512ft 505kts
02-Jan-18 12:00 38.903600 -114.311717 144 35538ft 510kts
02-Jan-18 12:01 38.788193 -114.203555 144 35561ft 515kts
02-Jan-18 12:02 38.672056 -114.095241 144 35476ft 519kts
02-Jan-18 12:03 38.555014 -113.986413 144 35504ft 521kts
02-Jan-18 12:04 38.437282 -113.877627 144 35570ft 521kts
02-Jan-18 12:05 38.319898 -113.769349 144 35562ft 521kts
02-Jan-18 12:06 38.202083 -113.661230 144 35559ft 521kts
02-Jan-18 12:07 38.084603 -113.553883 144 35538ft 520kts
02-Jan-18 12:08 37.967129 -113.446908 145 35514ft 521kts
02-Jan-18 12:09 37.843472 -113.353177 159 35429ft 515kts
02-Jan-18 12:10 37.711483 -113.281843 159 35402ft 520kts
02-Jan-18 12:11 37.578624 -113.207794 159 35431ft 524kts
02-Jan-18 12:12 37.444417 -113.133896 159 35531ft 526kts
02-Jan-18 12:13 37.310803 -113.060621 159 35531ft 523kts
02-Jan-18 12:14 37.177515 -112.987750 159 35490ft 520kts
02-Jan-18 12:15 37.044826 -112.915587 159 35403ft 521kts
02-Jan-18 12:16 36.911750 -112.843372 159 35449ft 522kts
02-Jan-18 12:17 36.778115 -112.771261 159 35491ft 523kts
02-Jan-18 12:18 36.644807 -112.699423 159 35531ft 522kts
02-Jan-18 12:19 36.511130 -112.627814 161 35519ft 522kts
02-Jan-18 12:20 36.378072 -112.556711 161 35419ft 519kts
02-Jan-18 12:21 36.246127 -112.486559 161 35377ft 515kts
02-Jan-18 12:22 36.113811 -112.416626 163 35366ft 516kts
02-Jan-18 12:23 35.976738 -112.408777 193 35365ft 493kts
02-Jan-18 12:24 35.839065 -112.421667 190 35460ft 498kts
02-Jan-18 12:25 35.701232 -112.433742 192 35445ft 492kts
02-Jan-18 12:26 35.565445 -112.445345 191 35416ft 487kts
02-Jan-18 12:27 35.429209 -112.440646 176 34377ft 500kts
02-Jan-18 12:28 35.291298 -112.412138 176 31608ft 506kts
02-Jan-18 12:29 35.152360 -112.385053 174 29486ft 505kts
02-Jan-18 12:30 35.013791 -112.354374 175 29442ft 504kts
02-Jan-18 12:31 34.875595 -112.324478 174 29392ft 505kts
02-Jan-18 12:32 34.736955 -112.293958 174 29359ft 505kts
02-Jan-18 12:33 34.598943 -112.263692 173 29247ft 501kts
02-Jan-18 12:34 34.466088 -112.234518 173 27677ft 460kts
02-Jan-18 12:35 34.346757 -112.204430 171 25761ft 418kts
02-Jan-18 12:36 34.237131 -112.176078 171 23656ft 393kts
02-Jan-18 12:37 34.131470 -112.148769 170 21156ft 381kts
02-Jan-18 12:38 34.029807 -112.142250 189 18676ft 361kts
02-Jan-18 12:39 33.931269 -112.154491 187 16175ft 352kts
02-Jan-18 12:40 33.835732 -112.172223 191 13666ft 343kts
02-Jan-18 12:41 33.742820 -112.191967 190 11168ft 335kts
02-Jan-18 12:42 33.652624 -112.211023 188 9028ft 315kts
02-Jan-18 12:43 33.569597 -112.228737 189 7227ft 293kts
02-Jan-18 12:44 33.528742 -112.296925 269 6131ft 258kts
02-Jan-18 12:45 33.517441 -112.374592 220 5973ft 241kts
02-Jan-18 12:46 33.453823 -112.396760 190 5982ft 240kts
02-Jan-18 12:47 33.388673 -112.404854 149 5974ft 235kts
02-Jan-18 12:48 33.380880 -112.338445 71 5294ft 222kts
02-Jan-18 12:49 33.404603 -112.268563 65 3836ft 230kts
02-Jan-18 12:50 33.427915 -112.204375 66 3453ft 187kts
02-Jan-18 12:51 33.439837 -112.147232 84 2763ft 163kts
02-Jan-18 12:52 33.440688 -112.097393 87 2319ft 145kts
02-Jan-18 12:53 33.440802 -112.048715 87 1561ft 142kts
02-Jan-18 12:54 33.440815 -112.009358 90 1149ft 39kts
02-Jan-18 12:55 33.440179 -112.007260 137 1149ft 0kts
02-Jan-18 12:56 33.440177 -112.007258 137 1149ft 0kts
02-Jan-18 12:57 33.439057 -112.007283 136 1149ft 8kts
02-Jan-18 12:58 33.438992 -112.001375 90 1149ft 24kts
02-Jan-18 12:59 33.437837 -111.997785 169 1149ft 3kts
02-Jan-18 13:00 33.437758 -111.997355 88 1149ft 0kts
02-Jan-18 13:01 33.437758 -111.997355 88 1149ft 0kts

Navigation Log

Ident Type
Flight plan parsing failed, navigation log unavailable